sensor_id;sensor_type;location;lat;lon;timestamp;P1;durP1;ratioP1;P2;durP2;ratioP2
59207;SDS011;44977;53.132;6.408;2024-02-23T00:03:00;7.65;;;1.40;;
59207;SDS011;44977;53.132;6.408;2024-02-23T00:08:00;6.90;;;1.10;;
59207;SDS011;44977;53.132;6.408;2024-02-23T00:13:01;6.68;;;1.38;;
59207;SDS011;44977;53.132;6.408;2024-02-23T00:18:02;9.55;;;1.58;;
59207;SDS011;44977;53.132;6.408;2024-02-23T00:23:04;8.07;;;1.42;;
59207;SDS011;44977;53.132;6.408;2024-02-23T00:28:05;5.65;;;1.10;;
59207;SDS011;44977;53.132;6.408;2024-02-23T00:33:05;8.35;;;1.40;;
59207;SDS011;44977;53.132;6.408;2024-02-23T00:38:06;6.82;;;1.27;;
59207;SDS011;44977;53.132;6.408;2024-02-23T00:43:07;7.75;;;1.35;;
59207;SDS011;44977;53.132;6.408;2024-02-23T00:48:08;5.85;;;1.20;;
59207;SDS011;44977;53.132;6.408;2024-02-23T00:53:09;7.65;;;1.50;;
59207;SDS011;44977;53.132;6.408;2024-02-23T00:58:09;6.18;;;1.33;;
59207;SDS011;44977;53.132;6.408;2024-02-23T01:03:11;7.72;;;1.40;;
59207;SDS011;44977;53.132;6.408;2024-02-23T01:08:11;6.28;;;1.42;;
59207;SDS011;44977;53.132;6.408;2024-02-23T01:13:12;8.80;;;1.77;;
59207;SDS011;44977;53.132;6.408;2024-02-23T01:18:13;7.30;;;1.77;;
59207;SDS011;44977;53.132;6.408;2024-02-23T01:23:14;9.27;;;1.95;;
59207;SDS011;44977;53.132;6.408;2024-02-23T01:28:15;10.25;;;2.28;;
59207;SDS011;44977;53.132;6.408;2024-02-23T01:33:15;10.05;;;2.38;;
59207;SDS011;44977;53.132;6.408;2024-02-23T01:38:16;11.45;;;2.58;;
59207;SDS011;44977;53.132;6.408;2024-02-23T01:43:20;13.63;;;3.28;;
59207;SDS011;44977;53.132;6.408;2024-02-23T01:48:21;10.45;;;2.50;;
59207;SDS011;44977;53.132;6.408;2024-02-23T01:53:22;10.57;;;3.03;;
59207;SDS011;44977;53.132;6.408;2024-02-23T01:58:25;10.38;;;2.58;;
59207;SDS011;44977;53.132;6.408;2024-02-23T02:03:26;13.50;;;3.45;;
59207;SDS011;44977;53.132;6.408;2024-02-23T02:08:27;14.18;;;3.35;;
59207;SDS011;44977;53.132;6.408;2024-02-23T02:13:28;16.38;;;3.83;;
59207;SDS011;44977;53.132;6.408;2024-02-23T02:18:30;13.43;;;3.33;;
59207;SDS011;44977;53.132;6.408;2024-02-23T02:23:30;10.60;;;3.08;;
59207;SDS011;44977;53.132;6.408;2024-02-23T02:28:31;14.63;;;3.22;;
59207;SDS011;44977;53.132;6.408;2024-02-23T02:33:32;11.88;;;3.65;;
59207;SDS011;44977;53.132;6.408;2024-02-23T02:38:33;14.30;;;3.50;;
59207;SDS011;44977;53.132;6.408;2024-02-23T02:43:34;12.25;;;3.13;;
59207;SDS011;44977;53.132;6.408;2024-02-23T02:48:34;12.23;;;3.22;;
59207;SDS011;44977;53.132;6.408;2024-02-23T02:53:35;16.73;;;4.07;;
59207;SDS011;44977;53.132;6.408;2024-02-23T02:58:36;13.27;;;3.33;;
59207;SDS011;44977;53.132;6.408;2024-02-23T03:03:36;10.88;;;2.40;;
59207;SDS011;44977;53.132;6.408;2024-02-23T03:08:37;16.05;;;3.20;;
59207;SDS011;44977;53.132;6.408;2024-02-23T03:13:38;11.73;;;3.08;;
59207;SDS011;44977;53.132;6.408;2024-02-23T03:18:38;12.80;;;2.67;;
59207;SDS011;44977;53.132;6.408;2024-02-23T03:23:39;11.18;;;2.67;;
59207;SDS011;44977;53.132;6.408;2024-02-23T03:28:40;12.13;;;2.72;;
59207;SDS011;44977;53.132;6.408;2024-02-23T03:33:41;8.65;;;2.35;;
59207;SDS011;44977;53.132;6.408;2024-02-23T03:38:41;10.88;;;2.65;;
59207;SDS011;44977;53.132;6.408;2024-02-23T03:43:42;11.00;;;2.45;;
59207;SDS011;44977;53.132;6.408;2024-02-23T03:48:43;13.13;;;2.60;;
59207;SDS011;44977;53.132;6.408;2024-02-23T03:53:45;12.35;;;2.50;;
59207;SDS011;44977;53.132;6.408;2024-02-23T03:58:45;10.80;;;2.92;;
59207;SDS011;44977;53.132;6.408;2024-02-23T04:03:46;13.57;;;2.88;;
59207;SDS011;44977;53.132;6.408;2024-02-23T04:08:47;11.63;;;2.63;;
59207;SDS011;44977;53.132;6.408;2024-02-23T04:13:47;13.18;;;2.88;;
59207;SDS011;44977;53.132;6.408;2024-02-23T04:18:48;9.93;;;2.38;;
59207;SDS011;44977;53.132;6.408;2024-02-23T04:23:48;12.48;;;2.70;;
59207;SDS011;44977;53.132;6.408;2024-02-23T04:28:49;12.05;;;2.55;;
59207;SDS011;44977;53.132;6.408;2024-02-23T04:33:50;11.18;;;2.55;;
59207;SDS011;44977;53.132;6.408;2024-02-23T04:38:50;11.20;;;2.13;;
59207;SDS011;44977;53.132;6.408;2024-02-23T04:43:51;13.82;;;2.47;;
59207;SDS011;44977;53.132;6.408;2024-02-23T04:48:58;16.50;;;2.65;;
59207;SDS011;44977;53.132;6.408;2024-02-23T04:53:59;11.75;;;2.80;;
59207;SDS011;44977;53.132;6.408;2024-02-23T04:59:00;10.15;;;2.25;;
59207;SDS011;44977;53.132;6.408;2024-02-23T05:04:00;11.98;;;2.50;;
59207;SDS011;44977;53.132;6.408;2024-02-23T05:09:01;9.73;;;2.50;;
59207;SDS011;44977;53.132;6.408;2024-02-23T05:14:03;11.35;;;2.65;;
59207;SDS011;44977;53.132;6.408;2024-02-23T05:19:03;11.35;;;2.58;;
59207;SDS011;44977;53.132;6.408;2024-02-23T05:24:04;13.27;;;2.72;;
59207;SDS011;44977;53.132;6.408;2024-02-23T05:29:06;13.18;;;2.80;;
59207;SDS011;44977;53.132;6.408;2024-02-23T05:34:06;12.73;;;2.40;;
59207;SDS011;44977;53.132;6.408;2024-02-23T05:39:07;14.63;;;2.75;;
59207;SDS011;44977;53.132;6.408;2024-02-23T05:44:09;11.30;;;2.30;;
59207;SDS011;44977;53.132;6.408;2024-02-23T05:49:10;9.68;;;2.80;;
59207;SDS011;44977;53.132;6.408;2024-02-23T05:54:11;12.77;;;3.42;;
59207;SDS011;44977;53.132;6.408;2024-02-23T05:59:12;12.57;;;4.13;;
59207;SDS011;44977;53.132;6.408;2024-02-23T06:04:13;13.60;;;5.30;;
59207;SDS011;44977;53.132;6.408;2024-02-23T06:09:13;11.80;;;5.53;;
59207;SDS011;44977;53.132;6.408;2024-02-23T06:14:14;11.85;;;6.13;;
59207;SDS011;44977;53.132;6.408;2024-02-23T06:19:15;12.85;;;6.78;;
59207;SDS011;44977;53.132;6.408;2024-02-23T06:24:16;13.10;;;7.80;;
59207;SDS011;44977;53.132;6.408;2024-02-23T06:29:17;14.60;;;7.00;;
59207;SDS011;44977;53.132;6.408;2024-02-23T06:34:17;16.08;;;6.90;;
59207;SDS011;44977;53.132;6.408;2024-02-23T06:39:18;12.50;;;7.05;;
59207;SDS011;44977;53.132;6.408;2024-02-23T06:44:20;15.77;;;7.10;;
59207;SDS011;44977;53.132;6.408;2024-02-23T06:49:20;16.98;;;7.30;;
59207;SDS011;44977;53.132;6.408;2024-02-23T06:54:21;13.68;;;7.95;;
59207;SDS011;44977;53.132;6.408;2024-02-23T06:59:21;16.25;;;7.93;;
59207;SDS011;44977;53.132;6.408;2024-02-23T07:04:24;16.50;;;8.35;;
59207;SDS011;44977;53.132;6.408;2024-02-23T07:09:25;16.52;;;8.73;;
59207;SDS011;44977;53.132;6.408;2024-02-23T07:14:26;15.00;;;8.70;;
59207;SDS011;44977;53.132;6.408;2024-02-23T07:19:26;16.80;;;9.18;;
59207;SDS011;44977;53.132;6.408;2024-02-23T07:24:27;14.25;;;8.82;;
59207;SDS011;44977;53.132;6.408;2024-02-23T07:29:28;16.75;;;7.78;;
59207;SDS011;44977;53.132;6.408;2024-02-23T07:34:29;15.45;;;7.28;;
59207;SDS011;44977;53.132;6.408;2024-02-23T07:39:30;14.10;;;7.50;;
59207;SDS011;44977;53.132;6.408;2024-02-23T07:44:31;12.77;;;7.53;;
59207;SDS011;44977;53.132;6.408;2024-02-23T07:49:32;14.35;;;6.90;;
59207;SDS011;44977;53.132;6.408;2024-02-23T07:54:33;12.02;;;6.90;;
59207;SDS011;44977;53.132;6.408;2024-02-23T07:59:34;13.32;;;6.80;;
59207;SDS011;44977;53.132;6.408;2024-02-23T08:04:35;13.10;;;7.03;;
59207;SDS011;44977;53.132;6.408;2024-02-23T08:09:36;10.45;;;6.30;;
59207;SDS011;44977;53.132;6.408;2024-02-23T08:14:37;12.45;;;6.03;;
59207;SDS011;44977;53.132;6.408;2024-02-23T08:19:38;10.57;;;5.60;;
59207;SDS011;44977;53.132;6.408;2024-02-23T08:24:39;9.80;;;5.15;;
59207;SDS011;44977;53.132;6.408;2024-02-23T08:29:39;11.52;;;5.00;;
59207;SDS011;44977;53.132;6.408;2024-02-23T08:34:41;11.23;;;4.80;;
59207;SDS011;44977;53.132;6.408;2024-02-23T08:39:42;7.97;;;4.25;;
59207;SDS011;44977;53.132;6.408;2024-02-23T08:44:42;7.65;;;3.60;;
59207;SDS011;44977;53.132;6.408;2024-02-23T08:49:43;9.55;;;3.78;;
59207;SDS011;44977;53.132;6.408;2024-02-23T08:54:44;8.30;;;3.28;;
59207;SDS011;44977;53.132;6.408;2024-02-23T08:59:47;8.02;;;2.78;;
59207;SDS011;44977;53.132;6.408;2024-02-23T09:04:49;10.73;;;3.10;;
59207;SDS011;44977;53.132;6.408;2024-02-23T09:09:57;8.13;;;2.70;;
59207;SDS011;44977;53.132;6.408;2024-02-23T09:14:58;7.30;;;3.40;;
59207;SDS011;44977;53.132;6.408;2024-02-23T09:19:58;9.48;;;2.80;;
59207;SDS011;44977;53.132;6.408;2024-02-23T09:24:59;9.45;;;2.85;;
59207;SDS011;44977;53.132;6.408;2024-02-23T09:30:00;9.10;;;2.80;;
59207;SDS011;44977;53.132;6.408;2024-02-23T09:35:00;8.75;;;2.92;;
59207;SDS011;44977;53.132;6.408;2024-02-23T09:40:03;9.05;;;3.00;;
59207;SDS011;44977;53.132;6.408;2024-02-23T09:45:05;8.48;;;2.72;;
59207;SDS011;44977;53.132;6.408;2024-02-23T09:50:07;8.30;;;2.50;;
59207;SDS011;44977;53.132;6.408;2024-02-23T09:55:09;9.27;;;2.60;;
59207;SDS011;44977;53.132;6.408;2024-02-23T10:00:10;9.32;;;2.30;;
59207;SDS011;44977;53.132;6.408;2024-02-23T10:05:11;6.68;;;2.20;;
59207;SDS011;44977;53.132;6.408;2024-02-23T10:10:14;8.32;;;2.00;;
59207;SDS011;44977;53.132;6.408;2024-02-23T10:15:15;6.18;;;1.75;;
59207;SDS011;44977;53.132;6.408;2024-02-23T10:20:15;7.93;;;2.10;;
59207;SDS011;44977;53.132;6.408;2024-02-23T10:25:17;9.05;;;2.30;;
59207;SDS011;44977;53.132;6.408;2024-02-23T10:30:18;9.00;;;2.10;;
59207;SDS011;44977;53.132;6.408;2024-02-23T10:35:18;8.60;;;1.92;;
59207;SDS011;44977;53.132;6.408;2024-02-23T10:40:22;7.75;;;1.98;;
59207;SDS011;44977;53.132;6.408;2024-02-23T10:45:23;9.00;;;1.90;;
59207;SDS011;44977;53.132;6.408;2024-02-23T10:50:24;6.80;;;1.80;;
59207;SDS011;44977;53.132;6.408;2024-02-23T10:55:26;8.60;;;2.13;;
59207;SDS011;44977;53.132;6.408;2024-02-23T11:00:27;8.00;;;1.98;;
59207;SDS011;44977;53.132;6.408;2024-02-23T11:05:28;7.80;;;1.90;;
59207;SDS011;44977;53.132;6.408;2024-02-23T11:10:30;9.20;;;1.98;;
59207;SDS011;44977;53.132;6.408;2024-02-23T11:15:31;7.43;;;2.05;;
59207;SDS011;44977;53.132;6.408;2024-02-23T11:20:34;10.05;;;2.30;;
59207;SDS011;44977;53.132;6.408;2024-02-23T11:25:37;7.63;;;2.10;;
59207;SDS011;44977;53.132;6.408;2024-02-23T11:30:37;8.43;;;1.90;;
59207;SDS011;44977;53.132;6.408;2024-02-23T11:35:47;7.10;;;1.67;;
59207;SDS011;44977;53.132;6.408;2024-02-23T11:40:49;10.25;;;2.10;;
59207;SDS011;44977;53.132;6.408;2024-02-23T11:45:52;8.25;;;2.05;;
59207;SDS011;44977;53.132;6.408;2024-02-23T11:50:53;10.13;;;2.47;;
59207;SDS011;44977;53.132;6.408;2024-02-23T11:55:54;8.60;;;1.90;;
59207;SDS011;44977;53.132;6.408;2024-02-23T12:00:54;8.35;;;1.90;;
59207;SDS011;44977;53.132;6.408;2024-02-23T12:05:59;11.50;;;2.38;;
59207;SDS011;44977;53.132;6.408;2024-02-23T12:11:01;8.68;;;2.00;;
59207;SDS011;44977;53.132;6.408;2024-02-23T12:16:02;7.97;;;2.17;;
59207;SDS011;44977;53.132;6.408;2024-02-23T12:21:07;7.65;;;1.90;;
59207;SDS011;44977;53.132;6.408;2024-02-23T12:26:09;7.03;;;2.00;;
59207;SDS011;44977;53.132;6.408;2024-02-23T12:31:10;6.55;;;1.83;;
59207;SDS011;44977;53.132;6.408;2024-02-23T12:36:11;7.45;;;2.00;;
59207;SDS011;44977;53.132;6.408;2024-02-23T12:41:12;6.82;;;1.92;;
59207;SDS011;44977;53.132;6.408;2024-02-23T12:46:13;6.50;;;2.05;;
59207;SDS011;44977;53.132;6.408;2024-02-23T12:51:14;7.88;;;2.10;;
59207;SDS011;44977;53.132;6.408;2024-02-23T12:56:15;6.22;;;2.00;;
59207;SDS011;44977;53.132;6.408;2024-02-23T13:01:16;8.20;;;2.05;;
59207;SDS011;44977;53.132;6.408;2024-02-23T13:06:17;8.75;;;2.30;;
59207;SDS011;44977;53.132;6.408;2024-02-23T13:11:17;7.88;;;2.25;;
59207;SDS011;44977;53.132;6.408;2024-02-23T13:16:18;7.50;;;2.38;;
59207;SDS011;44977;53.132;6.408;2024-02-23T13:21:19;6.53;;;1.98;;
59207;SDS011;44977;53.132;6.408;2024-02-23T13:26:20;8.77;;;2.55;;
59207;SDS011;44977;53.132;6.408;2024-02-23T13:31:21;8.40;;;2.50;;
59207;SDS011;44977;53.132;6.408;2024-02-23T13:36:22;7.95;;;2.15;;
59207;SDS011;44977;53.132;6.408;2024-02-23T13:41:22;7.90;;;2.58;;
59207;SDS011;44977;53.132;6.408;2024-02-23T13:46:23;7.07;;;2.30;;
59207;SDS011;44977;53.132;6.408;2024-02-23T13:51:24;6.82;;;2.30;;
59207;SDS011;44977;53.132;6.408;2024-02-23T13:56:25;7.65;;;2.35;;
59207;SDS011;44977;53.132;6.408;2024-02-23T14:01:26;7.22;;;2.30;;
59207;SDS011;44977;53.132;6.408;2024-02-23T14:06:27;7.75;;;2.70;;
59207;SDS011;44977;53.132;6.408;2024-02-23T14:11:28;6.72;;;2.60;;
59207;SDS011;44977;53.132;6.408;2024-02-23T14:16:29;8.57;;;2.85;;
59207;SDS011;44977;53.132;6.408;2024-02-23T14:21:29;6.60;;;2.65;;
59207;SDS011;44977;53.132;6.408;2024-02-23T14:26:30;7.55;;;2.42;;
59207;SDS011;44977;53.132;6.408;2024-02-23T14:31:31;7.18;;;2.40;;
59207;SDS011;44977;53.132;6.408;2024-02-23T14:36:32;7.88;;;2.50;;
59207;SDS011;44977;53.132;6.408;2024-02-23T14:41:34;7.93;;;2.95;;
59207;SDS011;44977;53.132;6.408;2024-02-23T14:46:35;7.03;;;2.38;;
59207;SDS011;44977;53.132;6.408;2024-02-23T14:51:36;7.82;;;2.55;;
59207;SDS011;44977;53.132;6.408;2024-02-23T14:56:37;10.27;;;3.22;;
59207;SDS011;44977;53.132;6.408;2024-02-23T15:01:37;7.20;;;2.88;;
59207;SDS011;44977;53.132;6.408;2024-02-23T15:06:41;5.97;;;2.30;;
59207;SDS011;44977;53.132;6.408;2024-02-23T15:11:42;6.93;;;2.50;;
59207;SDS011;44977;53.132;6.408;2024-02-23T15:16:43;6.78;;;2.65;;
59207;SDS011;44977;53.132;6.408;2024-02-23T15:21:44;8.48;;;2.97;;
59207;SDS011;44977;53.132;6.408;2024-02-23T15:26:45;8.43;;;3.30;;
59207;SDS011;44977;53.132;6.408;2024-02-23T15:31:46;8.27;;;3.03;;
59207;SDS011;44977;53.132;6.408;2024-02-23T15:36:46;8.80;;;3.50;;
59207;SDS011;44977;53.132;6.408;2024-02-23T15:41:47;7.85;;;3.20;;
59207;SDS011;44977;53.132;6.408;2024-02-23T15:46:48;9.73;;;3.50;;
59207;SDS011;44977;53.132;6.408;2024-02-23T15:51:48;8.48;;;2.80;;
59207;SDS011;44977;53.132;6.408;2024-02-23T15:56:50;11.00;;;4.03;;
59207;SDS011;44977;53.132;6.408;2024-02-23T16:01:50;10.18;;;3.83;;
59207;SDS011;44977;53.132;6.408;2024-02-23T16:06:51;9.70;;;3.53;;
59207;SDS011;44977;53.132;6.408;2024-02-23T16:11:52;10.35;;;3.25;;
59207;SDS011;44977;53.132;6.408;2024-02-23T16:16:53;10.68;;;3.65;;
59207;SDS011;44977;53.132;6.408;2024-02-23T16:21:54;10.35;;;4.07;;
59207;SDS011;44977;53.132;6.408;2024-02-23T16:26:55;11.43;;;3.97;;
59207;SDS011;44977;53.132;6.408;2024-02-23T16:31:56;10.07;;;3.60;;
59207;SDS011;44977;53.132;6.408;2024-02-23T16:36:56;8.02;;;3.10;;
59207;SDS011;44977;53.132;6.408;2024-02-23T16:41:57;7.80;;;3.22;;
59207;SDS011;44977;53.132;6.408;2024-02-23T16:46:58;9.32;;;3.42;;
59207;SDS011;44977;53.132;6.408;2024-02-23T16:51:59;7.93;;;3.22;;
59207;SDS011;44977;53.132;6.408;2024-02-23T16:57:00;9.93;;;3.22;;
59207;SDS011;44977;53.132;6.408;2024-02-23T17:02:00;13.18;;;3.80;;
59207;SDS011;44977;53.132;6.408;2024-02-23T17:07:01;10.38;;;3.30;;
59207;SDS011;44977;53.132;6.408;2024-02-23T17:12:02;8.45;;;3.72;;
59207;SDS011;44977;53.132;6.408;2024-02-23T17:17:03;8.43;;;3.72;;
59207;SDS011;44977;53.132;6.408;2024-02-23T17:22:04;10.60;;;3.95;;
59207;SDS011;44977;53.132;6.408;2024-02-23T17:27:05;10.80;;;4.30;;
59207;SDS011;44977;53.132;6.408;2024-02-23T17:32:05;10.40;;;4.07;;
59207;SDS011;44977;53.132;6.408;2024-02-23T17:37:06;9.70;;;3.50;;
59207;SDS011;44977;53.132;6.408;2024-02-23T17:42:09;10.27;;;3.80;;
59207;SDS011;44977;53.132;6.408;2024-02-23T17:47:10;7.88;;;3.70;;
59207;SDS011;44977;53.132;6.408;2024-02-23T17:52:10;7.65;;;3.50;;
59207;SDS011;44977;53.132;6.408;2024-02-23T17:57:11;9.38;;;3.40;;
59207;SDS011;44977;53.132;6.408;2024-02-23T18:02:12;8.95;;;3.92;;
59207;SDS011;44977;53.132;6.408;2024-02-23T18:07:14;10.80;;;3.80;;
59207;SDS011;44977;53.132;6.408;2024-02-23T18:12:15;9.25;;;3.67;;
59207;SDS011;44977;53.132;6.408;2024-02-23T18:17:15;8.65;;;3.33;;
59207;SDS011;44977;53.132;6.408;2024-02-23T18:22:16;7.95;;;3.10;;
59207;SDS011;44977;53.132;6.408;2024-02-23T18:27:17;8.00;;;3.22;;
59207;SDS011;44977;53.132;6.408;2024-02-23T18:32:17;10.52;;;3.20;;
59207;SDS011;44977;53.132;6.408;2024-02-23T18:37:18;6.68;;;2.70;;
59207;SDS011;44977;53.132;6.408;2024-02-23T18:42:19;6.50;;;2.33;;
59207;SDS011;44977;53.132;6.408;2024-02-23T18:47:20;6.05;;;2.35;;
59207;SDS011;44977;53.132;6.408;2024-02-23T18:52:20;5.68;;;2.22;;
59207;SDS011;44977;53.132;6.408;2024-02-23T18:57:21;7.95;;;2.40;;
59207;SDS011;44977;53.132;6.408;2024-02-23T19:02:22;6.43;;;2.25;;
59207;SDS011;44977;53.132;6.408;2024-02-23T19:07:22;7.50;;;2.50;;
59207;SDS011;44977;53.132;6.408;2024-02-23T19:12:23;7.18;;;2.60;;
59207;SDS011;44977;53.132;6.408;2024-02-23T19:17:24;7.30;;;2.50;;
59207;SDS011;44977;53.132;6.408;2024-02-23T19:22:25;6.50;;;2.92;;
59207;SDS011;44977;53.132;6.408;2024-02-23T19:27:27;7.35;;;2.75;;
59207;SDS011;44977;53.132;6.408;2024-02-23T19:32:28;6.68;;;3.10;;
59207;SDS011;44977;53.132;6.408;2024-02-23T19:37:29;7.15;;;3.00;;
59207;SDS011;44977;53.132;6.408;2024-02-23T19:42:29;8.70;;;3.42;;
59207;SDS011;44977;53.132;6.408;2024-02-23T19:47:30;7.90;;;2.88;;
59207;SDS011;44977;53.132;6.408;2024-02-23T19:52:31;8.80;;;3.28;;
59207;SDS011;44977;53.132;6.408;2024-02-23T19:57:32;7.80;;;2.70;;
59207;SDS011;44977;53.132;6.408;2024-02-23T20:02:33;7.35;;;2.97;;
59207;SDS011;44977;53.132;6.408;2024-02-23T20:07:33;8.43;;;2.60;;
59207;SDS011;44977;53.132;6.408;2024-02-23T20:12:34;7.43;;;2.80;;
59207;SDS011;44977;53.132;6.408;2024-02-23T20:17:35;8.35;;;2.88;;
59207;SDS011;44977;53.132;6.408;2024-02-23T20:22:36;8.68;;;2.80;;
59207;SDS011;44977;53.132;6.408;2024-02-23T20:27:36;7.75;;;2.50;;
59207;SDS011;44977;53.132;6.408;2024-02-23T20:32:37;6.90;;;2.80;;
59207;SDS011;44977;53.132;6.408;2024-02-23T20:37:38;8.15;;;2.88;;
59207;SDS011;44977;53.132;6.408;2024-02-23T20:42:39;6.55;;;2.70;;
59207;SDS011;44977;53.132;6.408;2024-02-23T20:47:40;8.77;;;3.33;;
59207;SDS011;44977;53.132;6.408;2024-02-23T20:52:41;8.50;;;2.90;;
59207;SDS011;44977;53.132;6.408;2024-02-23T20:57:42;8.18;;;3.40;;
59207;SDS011;44977;53.132;6.408;2024-02-23T21:02:43;9.00;;;3.67;;
59207;SDS011;44977;53.132;6.408;2024-02-23T21:07:44;8.45;;;3.78;;
59207;SDS011;44977;53.132;6.408;2024-02-23T21:12:45;7.47;;;3.65;;
59207;SDS011;44977;53.132;6.408;2024-02-23T21:17:46;9.05;;;4.07;;
59207;SDS011;44977;53.132;6.408;2024-02-23T21:22:48;8.73;;;3.70;;
59207;SDS011;44977;53.132;6.408;2024-02-23T21:27:48;9.93;;;4.63;;
59207;SDS011;44977;53.132;6.408;2024-02-23T21:32:49;8.23;;;4.05;;
59207;SDS011;44977;53.132;6.408;2024-02-23T21:37:51;9.02;;;4.25;;
59207;SDS011;44977;53.132;6.408;2024-02-23T21:42:53;8.95;;;4.30;;
59207;SDS011;44977;53.132;6.408;2024-02-23T21:47:54;8.45;;;4.20;;
59207;SDS011;44977;53.132;6.408;2024-02-23T21:52:54;8.93;;;4.72;;
59207;SDS011;44977;53.132;6.408;2024-02-23T21:57:55;9.60;;;5.32;;
59207;SDS011;44977;53.132;6.408;2024-02-23T22:02:56;9.82;;;5.05;;
59207;SDS011;44977;53.132;6.408;2024-02-23T22:08:02;9.77;;;5.20;;
59207;SDS011;44977;53.132;6.408;2024-02-23T22:13:03;9.95;;;5.20;;
59207;SDS011;44977;53.132;6.408;2024-02-23T22:18:04;10.77;;;5.40;;
59207;SDS011;44977;53.132;6.408;2024-02-23T22:23:05;10.70;;;5.72;;
59207;SDS011;44977;53.132;6.408;2024-02-23T22:28:05;9.02;;;4.93;;
59207;SDS011;44977;53.132;6.408;2024-02-23T22:33:06;8.93;;;4.80;;
59207;SDS011;44977;53.132;6.408;2024-02-23T22:38:07;10.35;;;4.63;;
59207;SDS011;44977;53.132;6.408;2024-02-23T22:43:08;9.40;;;4.47;;
59207;SDS011;44977;53.132;6.408;2024-02-23T22:48:08;11.05;;;3.80;;
59207;SDS011;44977;53.132;6.408;2024-02-23T22:53:09;7.20;;;3.60;;
59207;SDS011;44977;53.132;6.408;2024-02-23T22:58:11;8.57;;;3.40;;
59207;SDS011;44977;53.132;6.408;2024-02-23T23:03:11;7.45;;;3.38;;
59207;SDS011;44977;53.132;6.408;2024-02-23T23:08:12;7.47;;;2.90;;
59207;SDS011;44977;53.132;6.408;2024-02-23T23:13:15;7.70;;;2.85;;
59207;SDS011;44977;53.132;6.408;2024-02-23T23:18:16;6.15;;;2.55;;
59207;SDS011;44977;53.132;6.408;2024-02-23T23:23:16;6.07;;;2.88;;
59207;SDS011;44977;53.132;6.408;2024-02-23T23:28:17;6.00;;;2.90;;
59207;SDS011;44977;53.132;6.408;2024-02-23T23:33:18;8.18;;;2.88;;
59207;SDS011;44977;53.132;6.408;2024-02-23T23:38:19;7.95;;;3.13;;
59207;SDS011;44977;53.132;6.408;2024-02-23T23:43:19;10.73;;;3.60;;
59207;SDS011;44977;53.132;6.408;2024-02-23T23:48:20;7.03;;;3.17;;
59207;SDS011;44977;53.132;6.408;2024-02-23T23:53:21;7.45;;;3.30;;
59207;SDS011;44977;53.132;6.408;2024-02-23T23:58:21;7.50;;;2.90;;
